Time;durP1;ratioP1;P1;durP2;ratioP2;P2;SDS_P1;SDS_P2;PMS_P1;PMS_P2;Temp;Humidity;BMP_temperature;BMP_pressure;BME280_temperature;BME280_humidity;BME280_pressure;Samples;Min_cycle;Max_cycle;Signal;HPM_P1;HPM_P2
2022/08/04 00:00:22;;;;;;;5.35;2.88;;;;;;;;;;5071144;28;20031;-65
2022/08/04 00:03:18;;;;;;;9.63;3.05;;;;;;;;;;5073613;28;20378;-65
2022/08/04 00:06:13;;;;;;;7.75;3.17;;;;;;;;;;5072658;28;20024;-64
2022/08/04 00:08:44;;;;;;;9.57;3.17;;;;;;;;;;5071310;28;20430;-65
2022/08/04 00:11:15;;;;;;;9.93;3.40;;;;;;;;;;5073574;28;20021;-65
2022/08/04 00:13:48;;;;;;;7.80;2.90;;;;;;;;;;5070317;28;20013;-65
2022/08/04 00:16:14;;;;;;;5.03;2.80;;;;;;;;;;5072313;28;20146;-65
2022/08/04 00:18:54;;;;;;;8.68;3.40;;;;;;;;;;5073166;28;20475;-64
2022/08/04 00:21:22;;;;;;;7.93;3.10;;;;;;;;;;5071826;28;20485;-65
2022/08/04 00:23:49;;;;;;;6.18;3.08;;;;;;;;;;5073425;28;20453;-64
2022/08/04 00:26:16;;;;;;;7.47;3.40;;;;;;;;;;5073320;28;20370;-65
2022/08/04 00:28:43;;;;;;;6.90;3.20;;;;;;;;;;5071836;28;20028;-64
2022/08/04 00:31:14;;;;;;;8.80;3.20;;;;;;;;;;5073286;28;20025;-65
2022/08/04 00:33:43;;;;;;;7.20;3.25;;;;;;;;;;5071011;28;20492;-65
2022/08/04 00:36:11;;;;;;;10.20;3.17;;;;;;;;;;5073139;28;20032;-64
2022/08/04 00:38:40;;;;;;;7.88;3.13;;;;;;;;;;5073070;28;20028;-65
2022/08/04 00:41:14;;;;;;;9.05;2.72;;;;;;;;;;5073115;28;20109;-65
2022/08/04 00:43:57;;;;;;;9.20;3.70;;;;;;;;;;5073145;28;20525;-65
2022/08/04 00:46:53;;;;;;;9.80;3.70;;;;;;;;;;5071714;28;20028;-64
2022/08/04 00:49:54;;;;;;;7.97;3.50;;;;;;;;;;5071169;28;20063;-66
2022/08/04 00:52:49;;;;;;;10.00;3.75;;;;;;;;;;5071261;28;20082;-65
2022/08/04 00:55:53;;;;;;;9.35;3.60;;;;;;;;;;5070386;28;20024;-65
2022/08/04 00:58:42;;;;;;;6.28;3.22;;;;;;;;;;5086618;28;20447;-65
2022/08/04 01:01:26;;;;;;;7.53;3.22;;;;;;;;;;5065936;28;20095;-65
2022/08/04 01:04:07;;;;;;;9.90;3.17;;;;;;;;;;5070532;28;20040;-65
2022/08/04 01:06:40;;;;;;;6.32;3.15;;;;;;;;;;5073646;28;20071;-65
2022/08/04 01:09:16;;;;;;;17.90;3.83;;;;;;;;;;5073545;28;20079;-64
2022/08/04 01:11:57;;;;;;;11.63;3.67;;;;;;;;;;5073285;28;20023;-65
2022/08/04 01:14:28;;;;;;;7.38;3.38;;;;;;;;;;5066023;28;20044;-63
2022/08/04 01:17:06;;;;;;;10.50;3.63;;;;;;;;;;5063271;28;20038;-65
2022/08/04 01:20:00;;;;;;;11.02;3.40;;;;;;;;;;5071838;28;20028;-64
2022/08/04 01:22:31;;;;;;;9.68;3.42;;;;;;;;;;5083135;28;20036;-64
2022/08/04 01:25:17;;;;;;;9.13;3.25;;;;;;;;;;5075014;28;20025;-65
2022/08/04 01:28:03;;;;;;;16.60;4.18;;;;;;;;;;5052071;28;20017;-65
2022/08/04 01:30:31;;;;;;;10.00;3.38;;;;;;;;;;5051835;28;20028;-65
2022/08/04 01:33:07;;;;;;;6.25;3.00;;;;;;;;;;5051956;28;20040;-65
2022/08/04 01:35:55;;;;;;;9.48;3.63;;;;;;;;;;5051227;28;20017;-64
2022/08/04 01:38:41;;;;;;;10.32;3.38;;;;;;;;;;5051205;28;20383;-64
2022/08/04 01:41:09;;;;;;;10.95;3.60;;;;;;;;;;5051565;28;20021;-65
2022/08/04 01:43:40;;;;;;;9.57;3.60;;;;;;;;;;5051445;28;20095;-64
2022/08/04 01:46:10;;;;;;;7.57;3.45;;;;;;;;;;5051454;28;20100;-64
2022/08/04 01:48:37;;;;;;;9.05;3.33;;;;;;;;;;5050855;28;20035;-64
2022/08/04 01:51:07;;;;;;;10.57;3.10;;;;;;;;;;5050974;28;20037;-64
2022/08/04 01:53:35;;;;;;;7.70;3.42;;;;;;;;;;5050890;28;20129;-64
2022/08/04 01:56:02;;;;;;;8.30;3.30;;;;;;;;;;5050882;28;20028;-64
2022/08/04 01:58:32;;;;;;;9.75;3.80;;;;;;;;;;5051367;28;20052;-64
2022/08/04 02:01:08;;;;;;;9.75;3.83;;;;;;;;;;5051327;28;20485;-64
2022/08/04 02:03:39;;;;;;;14.70;3.67;;;;;;;;;;5051216;28;20451;-63
2022/08/04 02:06:31;;;;;;;8.73;3.92;;;;;;;;;;5051522;28;20362;-65
2022/08/04 02:09:15;;;;;;;5.55;3.38;;;;;;;;;;5050878;28;20029;-65
2022/08/04 02:12:10;;;;;;;9.68;3.53;;;;;;;;;;5051095;28;20078;-64
2022/08/04 02:14:58;;;;;;;7.53;3.40;;;;;;;;;;5048045;28;20043;-64
2022/08/04 02:18:01;;;;;;;5.03;3.22;;;;;;;;;;5050629;28;20116;-65
2022/08/04 02:20:34;;;;;;;9.15;3.58;;;;;;;;;;5008270;28;20068;-64
2022/08/04 02:23:02;;;;;;;11.23;3.70;;;;;;;;;;5023629;28;20041;-65
2022/08/04 02:25:31;;;;;;;7.70;3.63;;;;;;;;;;5028094;28;20021;-67
2022/08/04 02:28:12;;;;;;;9.30;3.75;;;;;;;;;;5028554;28;20155;-67
2022/08/04 02:30:53;;;;;;;8.25;3.50;;;;;;;;;;5028533;28;20396;-65
2022/08/04 02:33:33;;;;;;;7.30;3.65;;;;;;;;;;5028668;28;20098;-65
2022/08/04 02:36:01;;;;;;;8.00;3.80;;;;;;;;;;5028216;28;20037;-65
2022/08/04 02:38:38;;;;;;;10.40;3.85;;;;;;;;;;5027753;28;20374;-65
2022/08/04 02:41:05;;;;;;;9.70;3.50;;;;;;;;;;5028510;28;20479;-65
2022/08/04 02:43:34;;;;;;;8.98;3.55;;;;;;;;;;5028250;28;20064;-65
2022/08/04 02:46:03;;;;;;;10.80;3.90;;;;;;;;;;5028395;28;20029;-65
2022/08/04 02:48:33;;;;;;;6.13;3.92;;;;;;;;;;5027768;28;20075;-65
2022/08/04 02:51:01;;;;;;;9.27;3.13;;;;;;;;;;5027748;28;20045;-65
2022/08/04 02:53:29;;;;;;;9.63;3.70;;;;;;;;;;5027558;28;20033;-65
2022/08/04 02:55:56;;;;;;;6.53;3.53;;;;;;;;;;5038516;28;20040;-65
2022/08/04 02:58:27;;;;;;;7.20;3.65;;;;;;;;;;5050420;28;20124;-64
2022/08/04 03:00:53;;;;;;;8.10;3.67;;;;;;;;;;5050490;28;20040;-65
2022/08/04 03:03:53;;;;;;;11.88;6.10;;;;;;;;;;5050535;28;20029;-64
2022/08/04 03:06:43;;;;;;;8.07;4.63;;;;;;;;;;5027853;28;20073;-65
2022/08/04 03:09:23;;;;;;;8.25;4.60;;;;;;;;;;5028222;28;20042;-65
2022/08/04 03:12:16;;;;;;;11.85;4.15;;;;;;;;;;5027959;28;20037;-65
2022/08/04 03:15:03;;;;;;;10.35;3.90;;;;;;;;;;5028223;28;20030;-65
2022/08/04 03:17:44;;;;;;;7.38;3.97;;;;;;;;;;5027660;28;20494;-65
2022/08/04 03:20:31;;;;;;;8.05;3.70;;;;;;;;;;5027596;28;20059;-65
2022/08/04 03:23:29;;;;;;;8.00;3.78;;;;;;;;;;5042257;28;20080;-65
2022/08/04 03:26:22;;;;;;;9.25;4.18;;;;;;;;;;4988276;28;20457;-65
2022/08/04 03:29:20;;;;;;;7.78;4.07;;;;;;;;;;4988943;28;20085;-65
2022/08/04 03:32:12;;;;;;;15.93;4.25;;;;;;;;;;4988677;28;20504;-65
2022/08/04 03:35:02;;;;;;;12.30;4.60;;;;;;;;;;4988851;28;20038;-65
2022/08/04 03:37:46;;;;;;;7.85;4.10;;;;;;;;;;4988471;28;20085;-65
2022/08/04 03:40:21;;;;;;;7.50;4.20;;;;;;;;;;4988510;28;20127;-66
2022/08/04 03:42:55;;;;;;;11.88;4.75;;;;;;;;;;4992816;28;20462;-65
2022/08/04 03:45:47;;;;;;;11.05;4.30;;;;;;;;;;5008172;28;20487;-65
2022/08/04 03:48:22;;;;;;;11.70;4.65;;;;;;;;;;5007519;28;20040;-65
2022/08/04 03:54:27;;;;;;;10.40;4.57;;;;;;;;;;5011386;28;20844;-65
2022/08/04 03:57:14;;;;;;;7.55;4.00;;;;;;;;;;4952722;29;20118;-65
2022/08/04 03:59:50;;;;;;;8.00;4.18;;;;;;;;;;4953209;29;20031;-65
2022/08/04 04:02:33;;;;;;;6.28;3.90;;;;;;;;;;4961948;28;20518;-66
2022/08/04 04:05:44;;;;;;;6.05;4.05;;;;;;;;;;4972561;28;20463;-66
2022/08/04 04:08:21;;;;;;;11.55;4.15;;;;;;;;;;4972257;28;20527;-64
2022/08/04 04:11:24;;;;;;;7.18;3.95;;;;;;;;;;4972547;28;20037;-66
2022/08/04 04:14:17;;;;;;;8.88;4.15;;;;;;;;;;4972258;28;20066;-65
2022/08/04 04:17:01;;;;;;;8.98;4.35;;;;;;;;;;4972027;28;20038;-65
2022/08/04 04:20:03;;;;;;;10.02;4.13;;;;;;;;;;4971396;28;20185;-66
2022/08/04 04:22:42;;;;;;;7.63;3.85;;;;;;;;;;4982499;28;20057;-65
2022/08/04 04:25:11;;;;;;;5.73;3.70;;;;;;;;;;4990994;28;20067;-65
2022/08/04 04:28:03;;;;;;;9.30;4.22;;;;;;;;;;4991302;28;20039;-64
2022/08/04 04:31:08;;;;;;;14.02;3.72;;;;;;;;;;4991334;28;20022;-64
2022/08/04 04:33:44;;;;;;;9.55;4.88;;;;;;;;;;5024115;28;20806;-65
2022/08/04 04:36:35;;;;;;;13.50;4.60;;;;;;;;;;5052335;28;20431;-65
2022/08/04 04:39:12;;;;;;;21.02;5.32;;;;;;;;;;5052360;28;20033;-64
2022/08/04 04:42:01;;;;;;;9.27;4.88;;;;;;;;;;5052465;28;20059;-65
2022/08/04 04:44:45;;;;;;;8.55;4.82;;;;;;;;;;5052429;28;20044;-65
2022/08/04 04:47:21;;;;;;;9.25;5.18;;;;;;;;;;5053031;28;20056;-65
2022/08/04 04:50:07;;;;;;;17.65;5.00;;;;;;;;;;5052626;28;20025;-64
2022/08/04 04:52:51;;;;;;;10.07;4.97;;;;;;;;;;5052819;28;20025;-65
2022/08/04 04:55:20;;;;;;;14.18;5.32;;;;;;;;;;5052866;28;20502;-65
2022/08/04 04:57:51;;;;;;;14.52;5.50;;;;;;;;;;5052545;28;20033;-65
2022/08/04 05:00:17;;;;;;;12.82;5.43;;;;;;;;;;5052406;28;20037;-66
2022/08/04 05:03:24;;;;;;;8.77;5.32;;;;;;;;;;5051878;28;20021;-65
2022/08/04 05:05:56;;;;;;;9.45;5.20;;;;;;;;;;5051892;28;20040;-65
2022/08/04 05:08:52;;;;;;;14.85;5.10;;;;;;;;;;5051855;28;20128;-65
2022/08/04 05:11:43;;;;;;;14.75;5.65;;;;;;;;;;5049247;28;20036;-65
2022/08/04 05:14:17;;;;;;;13.48;5.15;;;;;;;;;;5049899;28;20025;-65
2022/08/04 05:17:15;;;;;;;14.90;5.00;;;;;;;;;;5049628;28;20041;-65
2022/08/04 05:19:59;;;;;;;13.52;4.95;;;;;;;;;;4970999;28;20039;-65
2022/08/04 05:22:41;;;;;;;8.13;4.97;;;;;;;;;;4970610;28;20070;-66
2022/08/04 05:25:34;;;;;;;11.20;5.22;;;;;;;;;;4970854;28;20054;-66
2022/08/04 05:28:02;;;;;;;11.38;5.22;;;;;;;;;;4931786;29;20063;-66
2022/08/04 05:30:31;;;;;;;19.13;5.00;;;;;;;;;;4931804;29;20127;-65
2022/08/04 05:33:04;;;;;;;15.82;4.90;;;;;;;;;;4931625;29;20031;-66
2022/08/04 05:35:33;;;;;;;13.23;4.72;;;;;;;;;;4931567;29;20095;-65
2022/08/04 05:38:02;;;;;;;11.60;4.70;;;;;;;;;;4931519;29;20050;-65
2022/08/04 05:40:28;;;;;;;9.48;4.63;;;;;;;;;;4931628;29;20036;-67
2022/08/04 05:42:55;;;;;;;12.82;4.60;;;;;;;;;;4931702;29;20482;-65
2022/08/04 05:45:22;;;;;;;14.40;4.35;;;;;;;;;;4931210;29;20032;-64
2022/08/04 05:47:50;;;;;;;8.80;4.30;;;;;;;;;;4938827;29;20440;-63
2022/08/04 05:50:16;;;;;;;7.97;4.40;;;;;;;;;;4950627;29;20130;-66
2022/08/04 05:52:42;;;;;;;6.78;3.80;;;;;;;;;;4950669;29;20589;-65
2022/08/04 05:55:11;;;;;;;9.10;4.50;;;;;;;;;;4950574;29;20186;-65
2022/08/04 05:57:40;;;;;;;5.97;3.88;;;;;;;;;;4988807;28;20038;-65
2022/08/04 06:00:09;;;;;;;10.48;4.28;;;;;;;;;;4990420;28;20052;-65
2022/08/04 06:02:36;;;;;;;11.20;4.53;;;;;;;;;;4998212;28;20037;-66
2022/08/04 06:05:06;;;;;;;9.00;4.40;;;;;;;;;;5031593;28;20261;-65
2022/08/04 06:07:32;;;;;;;7.97;3.90;;;;;;;;;;5059402;28;20029;-65
2022/08/04 06:09:59;;;;;;;10.30;4.18;;;;;;;;;;5060040;28;20098;-65
2022/08/04 06:12:41;;;;;;;8.18;4.47;;;;;;;;;;5060382;28;20029;-64
2022/08/04 06:15:08;;;;;;;6.85;4.13;;;;;;;;;;5061120;28;20035;-65
2022/08/04 06:17:39;;;;;;;7.38;4.18;;;;;;;;;;5059044;28;20080;-65
2022/08/04 06:20:07;;;;;;;5.95;4.50;;;;;;;;;;5059058;28;20036;-65
2022/08/04 06:22:34;;;;;;;6.72;4.30;;;;;;;;;;5066452;28;20527;-65
2022/08/04 06:25:01;;;;;;;7.63;4.18;;;;;;;;;;5064370;28;20496;-65
2022/08/04 06:27:29;;;;;;;7.03;4.38;;;;;;;;;;5059294;28;20043;-65
2022/08/04 06:29:58;;;;;;;5.90;3.83;;;;;;;;;;5069239;28;20036;-64
2022/08/04 06:32:35;;;;;;;7.18;4.10;;;;;;;;;;5072122;28;20454;-64
2022/08/04 06:35:05;;;;;;;6.13;4.28;;;;;;;;;;5071505;28;20089;-65
2022/08/04 06:37:33;;;;;;;12.43;4.22;;;;;;;;;;5072342;28;20411;-65
2022/08/04 06:40:01;;;;;;;8.75;4.20;;;;;;;;;;5072352;28;20031;-65
2022/08/04 06:42:27;;;;;;;10.38;4.30;;;;;;;;;;5072143;28;20401;-65
2022/08/04 06:44:55;;;;;;;5.95;4.20;;;;;;;;;;5071707;28;20511;-65
2022/08/04 06:47:22;;;;;;;7.68;4.38;;;;;;;;;;5071979;28;20035;-65
2022/08/04 06:49:49;;;;;;;7.43;4.00;;;;;;;;;;5072235;28;20016;-65
2022/08/04 06:52:17;;;;;;;5.97;4.20;;;;;;;;;;5072009;28;20036;-65
2022/08/04 06:54:47;;;;;;;7.90;4.13;;;;;;;;;;5070577;28;20090;-65
2022/08/04 06:57:17;;;;;;;6.28;4.20;;;;;;;;;;5072120;28;20074;-64
2022/08/04 06:59:49;;;;;;;6.38;4.00;;;;;;;;;;5071751;28;20024;-64
2022/08/04 07:02:19;;;;;;;12.88;4.13;;;;;;;;;;5071605;28;20408;-65
2022/08/04 07:04:47;;;;;;;5.88;3.92;;;;;;;;;;5071854;28;20024;-65
2022/08/04 07:07:13;;;;;;;7.30;4.05;;;;;;;;;;5071841;28;20056;-65
2022/08/04 07:09:39;;;;;;;5.63;4.15;;;;;;;;;;5071807;28;20056;-65
2022/08/04 07:12:06;;;;;;;7.63;3.95;;;;;;;;;;5071932;28;20120;-65
2022/08/04 07:14:34;;;;;;;10.15;4.22;;;;;;;;;;5071762;28;20024;-64
2022/08/04 07:17:02;;;;;;;7.38;4.22;;;;;;;;;;5071787;28;20036;-65
2022/08/04 07:19:29;;;;;;;7.80;4.28;;;;;;;;;;5071723;28;20187;-65
2022/08/04 07:21:55;;;;;;;8.13;4.90;;;;;;;;;;5078648;28;20078;-64
2022/08/04 07:24:28;;;;;;;7.20;4.18;;;;;;;;;;5095778;28;20052;-65
2022/08/04 07:26:54;;;;;;;10.35;4.00;;;;;;;;;;5095853;28;20069;-63
2022/08/04 07:29:20;;;;;;;9.23;4.32;;;;;;;;;;5095603;28;20094;-64
2022/08/04 07:31:48;;;;;;;9.77;4.57;;;;;;;;;;5096010;28;20023;-63
2022/08/04 07:34:14;;;;;;;7.38;3.80;;;;;;;;;;5095764;28;20024;-65
2022/08/04 07:36:39;;;;;;;8.40;3.97;;;;;;;;;;5095505;28;20031;-64
2022/08/04 07:39:05;;;;;;;9.93;4.00;;;;;;;;;;5095685;28;20092;-64
2022/08/04 07:41:31;;;;;;;8.43;3.50;;;;;;;;;;5095671;28;20494;-65
2022/08/04 07:43:57;;;;;;;5.57;3.60;;;;;;;;;;5095308;28;20032;-65
2022/08/04 07:46:24;;;;;;;5.05;3.75;;;;;;;;;;5095359;28;20020;-65
2022/08/04 07:48:50;;;;;;;5.78;3.38;;;;;;;;;;5095004;28;20028;-64
2022/08/04 07:51:16;;;;;;;11.10;4.00;;;;;;;;;;5095104;28;20032;-65
2022/08/04 07:53:43;;;;;;;5.22;3.88;;;;;;;;;;5095498;28;20031;-65
2022/08/04 07:56:10;;;;;;;6.03;3.47;;;;;;;;;;5095040;28;20030;-65
2022/08/04 07:58:36;;;;;;;6.35;3.53;;;;;;;;;;5095050;28;20083;-65
2022/08/04 08:01:02;;;;;;;5.63;3.28;;;;;;;;;;5094988;28;20039;-65
2022/08/04 08:03:27;;;;;;;6.63;3.38;;;;;;;;;;5095280;28;20032;-65
2022/08/04 08:05:53;;;;;;;7.25;3.25;;;;;;;;;;5095347;28;20039;-65
2022/08/04 08:08:20;;;;;;;5.88;3.30;;;;;;;;;;5095074;28;20032;-65
2022/08/04 08:10:49;;;;;;;7.57;3.20;;;;;;;;;;5094711;28;20059;-64
2022/08/04 08:13:15;;;;;;;5.78;3.10;;;;;;;;;;5094840;28;20127;-63
2022/08/04 08:15:44;;;;;;;7.03;3.10;;;;;;;;;;5095146;28;20105;-65
2022/08/04 08:18:10;;;;;;;8.65;3.30;;;;;;;;;;5094787;28;20084;-65
2022/08/04 08:20:36;;;;;;;7.53;3.42;;;;;;;;;;5094870;28;20103;-65
2022/08/04 08:23:02;;;;;;;13.90;3.63;;;;;;;;;;5061890;28;20050;-64
2022/08/04 08:25:32;;;;;;;8.10;3.42;;;;;;;;;;5054050;28;20021;-63
2022/08/04 08:27:58;;;;;;;8.32;3.20;;;;;;;;;;5054351;28;20024;-65
2022/08/04 08:30:24;;;;;;;4.63;3.08;;;;;;;;;;5054427;28;20063;-65
2022/08/04 08:32:50;;;;;;;8.85;3.53;;;;;;;;;;5054095;28;20017;-63
2022/08/04 08:35:17;;;;;;;5.32;3.53;;;;;;;;;;5053579;28;20017;-66
2022/08/04 08:37:55;;;;;;;7.30;3.22;;;;;;;;;;5066059;28;20025;-65
2022/08/04 08:40:38;;;;;;;10.98;3.47;;;;;;;;;;5054034;28;20037;-64
2022/08/04 08:43:15;;;;;;;10.68;3.50;;;;;;;;;;5054182;28;20493;-64
2022/08/04 08:45:56;;;;;;;5.65;3.08;;;;;;;;;;5054013;28;20031;-65
2022/08/04 08:48:30;;;;;;;8.15;3.25;;;;;;;;;;5053987;28;20052;-65
2022/08/04 08:51:37;;;;;;;9.40;3.55;;;;;;;;;;5053980;28;20073;-65
2022/08/04 08:54:11;;;;;;;7.35;3.15;;;;;;;;;;5054022;28;20025;-65
2022/08/04 08:57:03;;;;;;;3.90;3.03;;;;;;;;;;5054025;28;20021;-65
2022/08/04 08:59:46;;;;;;;9.48;3.15;;;;;;;;;;5053724;28;20478;-66
2022/08/04 09:02:20;;;;;;;5.25;3.00;;;;;;;;;;5053829;28;20025;-66
2022/08/04 09:05:00;;;;;;;8.90;3.75;;;;;;;;;;5053878;28;20051;-65
2022/08/04 09:08:04;;;;;;;9.10;3.70;;;;;;;;;;5053734;28;20036;-64
2022/08/04 09:10:36;;;;;;;8.15;3.28;;;;;;;;;;5053534;28;20032;-65
2022/08/04 09:13:09;;;;;;;6.72;3.15;;;;;;;;;;5052350;28;20025;-64
2022/08/04 09:16:01;;;;;;;8.85;3.30;;;;;;;;;;5053646;28;20037;-66
2022/08/04 09:18:36;;;;;;;10.07;3.60;;;;;;;;;;5053606;28;20162;-66
2022/08/04 09:21:37;;;;;;;4.43;3.00;;;;;;;;;;5053331;28;20075;-65
2022/08/04 09:24:28;;;;;;;10.13;2.92;;;;;;;;;;5054370;28;20032;-65
2022/08/04 09:27:02;;;;;;;7.60;2.90;;;;;;;;;;5058267;28;20108;-65
2022/08/04 09:30:03;;;;;;;9.65;2.80;;;;;;;;;;5053357;28;20078;-65
2022/08/04 09:32:37;;;;;;;8.65;3.00;;;;;;;;;;5011604;28;20033;-64
2022/08/04 09:35:18;;;;;;;5.47;2.60;;;;;;;;;;5011496;28;20124;-65
2022/08/04 09:38:21;;;;;;;9.70;2.45;;;;;;;;;;5011139;28;20033;-66
2022/08/04 09:40:48;;;;;;;4.45;2.65;;;;;;;;;;5011140;28;20112;-66
2022/08/04 09:43:32;;;;;;;7.65;2.47;;;;;;;;;;5011523;28;20177;-65
2022/08/04 09:46:12;;;;;;;6.18;2.70;;;;;;;;;;5010073;28;20025;-66
2022/08/04 09:48:53;;;;;;;9.02;2.40;;;;;;;;;;5011056;28;20033;-65
2022/08/04 09:51:40;;;;;;;5.82;2.58;;;;;;;;;;5011132;28;20030;-66
2022/08/04 09:54:22;;;;;;;6.97;2.30;;;;;;;;;;5010846;28;20111;-65
2022/08/04 09:56:59;;;;;;;10.40;2.45;;;;;;;;;;5010843;28;20049;-65
2022/08/04 09:59:52;;;;;;;4.90;2.35;;;;;;;;;;4994355;28;20108;-64
2022/08/04 10:02:19;;;;;;;4.90;2.55;;;;;;;;;;5029938;28;20053;-66
2022/08/04 10:04:46;;;;;;;8.82;2.70;;;;;;;;;;5030420;28;20039;-65
2022/08/04 10:07:35;;;;;;;2.88;2.30;;;;;;;;;;5064124;28;20040;-66
2022/08/04 10:10:52;;;;;;;6.57;2.42;;;;;;;;;;5072784;28;20090;-64
2022/08/04 10:13:31;;;;;;;6.53;2.50;;;;;;;;;;5030281;28;20135;-66
2022/08/04 10:16:09;;;;;;;5.95;2.28;;;;;;;;;;5030280;28;20052;-65
2022/08/04 10:19:23;;;;;;;5.28;2.63;;;;;;;;;;5030457;28;20147;-66
2022/08/04 10:21:58;;;;;;;5.30;2.50;;;;;;;;;;4990532;28;20104;-66
2022/08/04 10:24:55;;;;;;;5.60;2.50;;;;;;;;;;4991011;28;20475;-64
2022/08/04 10:27:29;;;;;;;4.47;2.25;;;;;;;;;;4990665;28;20523;-64
2022/08/04 10:30:01;;;;;;;6.10;2.25;;;;;;;;;;4991003;28;20049;-65
2022/08/04 10:32:39;;;;;;;6.38;2.28;;;;;;;;;;4990402;28;20162;-64
2022/08/04 10:35:17;;;;;;;6.80;2.50;;;;;;;;;;4990831;28;20603;-64
2022/08/04 10:38:00;;;;;;;5.45;2.60;;;;;;;;;;4988177;28;20069;-65
2022/08/04 10:40:46;;;;;;;6.60;2.70;;;;;;;;;;4991699;28;20034;-64
2022/08/04 10:43:47;;;;;;;6.15;2.35;;;;;;;;;;4990697;28;20206;-65
2022/08/04 10:46:25;;;;;;;8.65;2.53;;;;;;;;;;4990742;28;20427;-64
2022/08/04 10:48:59;;;;;;;8.00;2.55;;;;;;;;;;4972059;28;20039;-65
2022/08/04 10:51:48;;;;;;;5.95;2.30;;;;;;;;;;4951638;29;20499;-64
2022/08/04 10:54:18;;;;;;;6.28;1.90;;;;;;;;;;4952376;29;20170;-64
2022/08/04 10:56:52;;;;;;;5.82;2.25;;;;;;;;;;4985469;28;20504;-65
2022/08/04 10:59:32;;;;;;;11.77;2.60;;;;;;;;;;5055523;28;20032;-64
2022/08/04 11:02:05;;;;;;;5.10;2.22;;;;;;;;;;5055982;28;20025;-65
2022/08/04 11:04:40;;;;;;;5.00;2.13;;;;;;;;;;5056116;28;20038;-64
2022/08/04 11:07:07;;;;;;;8.15;2.30;;;;;;;;;;5054680;28;20087;-63
2022/08/04 11:09:33;;;;;;;4.28;1.90;;;;;;;;;;5055928;28;20039;-64
2022/08/04 11:12:05;;;;;;;6.35;2.30;;;;;;;;;;5055912;28;20474;-65
2022/08/04 11:14:47;;;;;;;6.13;2.20;;;;;;;;;;5054884;28;20040;-65
2022/08/04 11:17:25;;;;;;;6.40;2.40;;;;;;;;;;5056211;28;20020;-64
2022/08/04 11:20:09;;;;;;;5.90;2.35;;;;;;;;;;5054814;28;20021;-65
2022/08/04 11:22:40;;;;;;;5.90;2.10;;;;;;;;;;5080729;28;20044;-64
2022/08/04 11:25:21;;;;;;;9.38;2.10;;;;;;;;;;5096260;28;20020;-64
2022/08/04 11:27:54;;;;;;;7.38;2.22;;;;;;;;;;5096070;28;20028;-65
2022/08/04 11:30:20;;;;;;;4.30;1.80;;;;;;;;;;5095397;28;20453;-64
2022/08/04 11:32:55;;;;;;;5.95;2.13;;;;;;;;;;5071853;28;20545;-65
2022/08/04 11:35:34;;;;;;;11.73;4.43;;;;;;;;;;5075023;28;20034;-65
2022/08/04 11:38:26;;;;;;;9.40;2.10;;;;;;;;;;5075422;28;20074;-65
2022/08/04 11:40:57;;;;;;;8.93;1.90;;;;;;;;;;5033049;28;20041;-65
2022/08/04 11:43:40;;;;;;;7.75;2.00;;;;;;;;;;5033253;28;20053;-65
2022/08/04 11:46:12;;;;;;;5.57;1.83;;;;;;;;;;5033199;28;20044;-64
2022/08/04 11:48:51;;;;;;;7.00;1.80;;;;;;;;;;5026915;28;20045;-65
2022/08/04 11:51:18;;;;;;;3.40;1.70;;;;;;;;;;5023170;28;20080;-65
2022/08/04 11:53:44;;;;;;;6.82;2.00;;;;;;;;;;5025703;28;20045;-66
2022/08/04 11:56:14;;;;;;;4.38;1.90;;;;;;;;;;5015429;28;20042;-65
2022/08/04 11:58:40;;;;;;;3.67;2.00;;;;;;;;;;5031496;28;20068;-66
2022/08/04 12:01:26;;;;;;;6.97;2.00;;;;;;;;;;5032401;28;20053;-66
2022/08/04 12:04:15;;;;;;;11.57;2.30;;;;;;;;;;5032638;28;20109;-65
2022/08/04 12:06:48;;;;;;;7.13;1.90;;;;;;;;;;5030078;28;20029;-64
2022/08/04 12:09:39;;;;;;;3.17;2.10;;;;;;;;;;5031721;28;20408;-65
2022/08/04 12:12:36;;;;;;;2.85;1.80;;;;;;;;;;5032687;28;20442;-66
2022/08/04 12:15:12;;;;;;;10.50;1.95;;;;;;;;;;5032595;28;20029;-65
2022/08/04 12:17:48;;;;;;;4.07;2.08;;;;;;;;;;5049175;28;20044;-65
2022/08/04 12:20:20;;;;;;;4.05;2.00;;;;;;;;;;5074530;28;20517;-65
2022/08/04 12:22:49;;;;;;;3.70;1.80;;;;;;;;;;5088495;28;20449;-65
2022/08/04 12:25:30;;;;;;;4.23;2.03;;;;;;;;;;5094742;28;20104;-64
2022/08/04 12:28:04;;;;;;;6.45;2.22;;;;;;;;;;5094680;28;20348;-65
2022/08/04 12:30:35;;;;;;;3.50;1.90;;;;;;;;;;5094709;28;20079;-65
2022/08/04 12:33:11;;;;;;;4.75;2.00;;;;;;;;;;5076564;28;20025;-64
2022/08/04 12:35:52;;;;;;;8.13;1.90;;;;;;;;;;5074348;28;20146;-66
2022/08/04 12:38:20;;;;;;;9.13;1.98;;;;;;;;;;5074204;28;20029;-65
2022/08/04 12:40:46;;;;;;;5.10;2.28;;;;;;;;;;5069588;28;20037;-64
2022/08/04 12:43:21;;;;;;;6.00;2.22;;;;;;;;;;5064563;28;20465;-65
2022/08/04 12:45:54;;;;;;;8.07;2.33;;;;;;;;;;5074260;28;20132;-65
2022/08/04 12:48:22;;;;;;;4.90;2.00;;;;;;;;;;5073735;28;20036;-64
2022/08/04 12:50:50;;;;;;;4.60;1.90;;;;;;;;;;5056619;28;20025;-65
2022/08/04 12:53:18;;;;;;;10.05;2.10;;;;;;;;;;5054163;28;20108;-65
2022/08/04 12:55:47;;;;;;;4.28;1.90;;;;;;;;;;5054060;28;20114;-64
2022/08/04 12:58:23;;;;;;;3.85;2.13;;;;;;;;;;5054072;28;20363;-64
2022/08/04 13:01:06;;;;;;;7.63;1.90;;;;;;;;;;5053410;28;20386;-64
2022/08/04 13:03:44;;;;;;;4.10;2.20;;;;;;;;;;5053835;28;20017;-64
2022/08/04 13:06:13;;;;;;;11.85;2.40;;;;;;;;;;5052350;28;20033;-65
2022/08/04 13:08:42;;;;;;;6.35;1.90;;;;;;;;;;5052710;28;20039;-65
2022/08/04 13:11:10;;;;;;;3.25;1.83;;;;;;;;;;5053840;28;20044;-63
2022/08/04 13:13:38;;;;;;;5.25;2.00;;;;;;;;;;5053737;28;20025;-65
2022/08/04 13:16:09;;;;;;;5.72;2.10;;;;;;;;;;5055102;28;20037;-63
2022/08/04 13:18:47;;;;;;;7.03;2.03;;;;;;;;;;5072437;28;20062;-65
2022/08/04 13:21:21;;;;;;;5.75;1.83;;;;;;;;;;5073896;28;20128;-65
2022/08/04 13:23:49;;;;;;;3.45;1.77;;;;;;;;;;5093597;28;20117;-65
2022/08/04 13:26:17;;;;;;;11.88;2.05;;;;;;;;;;5093301;28;20024;-63
2022/08/04 13:28:49;;;;;;;4.90;1.70;;;;;;;;;;5093384;28;20078;-65
2022/08/04 13:31:18;;;;;;;3.10;1.75;;;;;;;;;;5093247;28;20020;-64
2022/08/04 13:33:45;;;;;;;;;;;;;;;;;;5093817;28;20024;-65
2022/08/04 13:36:11;;;;;;;6.35;2.30;;;;;;;;;;5093313;28;19912;-66
2022/08/04 13:38:50;;;;;;;4.90;1.98;;;;;;;;;;5093386;28;20035;-63
2022/08/04 13:41:17;;;;;;;5.95;2.10;;;;;;;;;;5093466;28;20028;-64
2022/08/04 13:43:47;;;;;;;3.60;1.80;;;;;;;;;;5093245;28;20028;-65
2022/08/04 13:46:17;;;;;;;7.47;2.15;;;;;;;;;;5093030;28;20077;-66
2022/08/04 13:48:43;;;;;;;4.15;1.80;;;;;;;;;;5093138;28;20115;-65
2022/08/04 13:51:10;;;;;;;5.90;2.00;;;;;;;;;;5093317;28;20089;-65
2022/08/04 13:53:39;;;;;;;5.32;2.10;;;;;;;;;;5093316;28;20028;-64
2022/08/04 13:56:09;;;;;;;3.33;1.50;;;;;;;;;;5092983;28;20103;-65
2022/08/04 13:58:40;;;;;;;5.82;2.20;;;;;;;;;;5092838;28;20016;-65
2022/08/04 14:01:15;;;;;;;5.03;2.08;;;;;;;;;;5092953;28;20027;-64
2022/08/04 14:03:54;;;;;;;3.35;1.88;;;;;;;;;;5093073;28;20020;-66
2022/08/04 14:06:23;;;;;;;3.70;2.17;;;;;;;;;;5093063;28;20463;-64
2022/08/04 14:08:56;;;;;;;2.87;2.03;;;;;;;;;;5092840;28;20028;-66
2022/08/04 14:11:39;;;;;;;4.22;2.17;;;;;;;;;;5092962;28;20260;-65
2022/08/04 14:14:26;;;;;;;6.85;2.08;;;;;;;;;;5092570;28;20024;-66
2022/08/04 14:17:10;;;;;;;9.20;2.40;;;;;;;;;;5092628;28;20423;-65
2022/08/04 14:19:56;;;;;;;6.30;2.03;;;;;;;;;;5092789;28;20039;-63
2022/08/04 14:22:24;;;;;;;4.78;1.90;;;;;;;;;;5070807;28;20443;-66
2022/08/04 14:25:10;;;;;;;4.53;2.35;;;;;;;;;;5052291;28;20435;-65
2022/08/04 14:27:46;;;;;;;6.05;2.50;;;;;;;;;;5052199;28;20043;-65
2022/08/04 14:30:28;;;;;;;3.30;2.00;;;;;;;;;;5052259;28;20510;-66
2022/08/04 14:33:08;;;;;;;4.80;2.15;;;;;;;;;;5051562;28;20127;-64
2022/08/04 14:35:36;;;;;;;3.85;2.15;;;;;;;;;;5052272;28;20043;-65
2022/08/04 14:38:05;;;;;;;4.68;2.10;;;;;;;;;;5060673;28;20028;-64
2022/08/04 14:40:33;;;;;;;9.02;2.20;;;;;;;;;;5072321;28;20537;-66
2022/08/04 14:42:59;;;;;;;7.22;2.30;;;;;;;;;;5071974;28;20044;-64
2022/08/04 14:45:42;;;;;;;2.70;2.15;;;;;;;;;;5072115;28;20039;-64
2022/08/04 14:48:16;;;;;;;6.75;2.20;;;;;;;;;;5072020;28;20036;-64
2022/08/04 14:50:49;;;;;;;3.17;1.92;;;;;;;;;;5072031;28;20029;-66
2022/08/04 14:53:20;;;;;;;2.80;1.98;;;;;;;;;;5072033;28;20025;-65
2022/08/04 14:55:57;;;;;;;10.15;2.22;;;;;;;;;;5072199;28;20107;-66
2022/08/04 14:58:30;;;;;;;5.72;2.15;;;;;;;;;;5072021;28;20059;-65
2022/08/04 15:00:58;;;;;;;4.95;2.38;;;;;;;;;;5072001;28;20035;-64
2022/08/04 15:03:24;;;;;;;3.17;2.10;;;;;;;;;;5072017;28;20103;-65
2022/08/04 15:05:51;;;;;;;2.80;2.00;;;;;;;;;;5072097;28;20071;-65
2022/08/04 15:08:17;;;;;;;7.45;2.33;;;;;;;;;;5071930;28;20054;-64
2022/08/04 15:10:43;;;;;;;4.00;2.00;;;;;;;;;;5072049;28;20017;-63
2022/08/04 15:13:11;;;;;;;3.50;2.00;;;;;;;;;;5068284;28;20386;-65
2022/08/04 15:15:39;;;;;;;4.15;2.00;;;;;;;;;;5069922;28;20020;-63
2022/08/04 15:18:11;;;;;;;3.60;2.03;;;;;;;;;;5071927;28;20033;-64
2022/08/04 15:20:38;;;;;;;6.45;2.40;;;;;;;;;;5071771;28;20492;-65
2022/08/04 15:23:05;;;;;;;4.03;1.95;;;;;;;;;;5088015;28;20044;-63
2022/08/04 15:25:41;;;;;;;3.88;2.25;;;;;;;;;;5092008;28;20036;-65
2022/08/04 15:28:13;;;;;;;7.28;2.28;;;;;;;;;;5092009;28;20035;-65
2022/08/04 15:30:40;;;;;;;6.82;2.10;;;;;;;;;;5092024;28;20154;-66
2022/08/04 15:33:07;;;;;;;6.53;2.40;;;;;;;;;;5057750;28;20367;-65
2022/08/04 15:35:33;;;;;;;3.58;2.13;;;;;;;;;;5051705;28;20025;-64